Badajoz/Talavera La Real, Spain
Current Conditions -  °F | °C
As of 9:00 AM on Friday 28 Nov 2014 (Local Time) from LEBZ Reporting Station
Scattered Clouds Scattered Clouds  
Wind Chill: 52°   Ceiling: Unl
Heat Index: 52°   Visibility: 6mi
Dew Point: 50°   Wind: 10mph
Humidity: 94%   Direction: 220°SW
Pressure: 29"   Gusts: NA
Location:  38.88°N, 6.77°W
Report Text: LEBZ 280800Z 22009KT 9999 FEW022 SCT045 11/10 Q0982
Loading
Personal Weather Stations






























Interactive Weather Map New forecast layout! Learn more

10-Day Weather Forecast

Advertisements
Track Severe Weather on mobile